• Join FlightAware (Why Join?)
  • Login
  • US Flag 
10:29AM EDT


 

Airport Tracker/Info


-or-


 

Live Flight TrackerFlight Track Log ✈ KAP46 ✈ 23-Jun-2013 ✈ KMSS - KALB

Flight Track Log - Related Links

Times and Time Zones

All times are in EDT time to prevent confusion due to time zone crossing. See the KAP46 flight status page for this flight to view local times or setup timezone preferences in your user account.

Time Position Orientation Groundspeed Altitude Reporting Facility
EDT Latitude Longitude Course Direction KTS MPH feet Rate Location/Type
06:27PM 44.7661 -74.7089 158° South 150 173 4,900  Level Boston Center
06:28PM 44.7331 -74.6961 165° South 140 161 5,500 540 Climbing Boston Center
06:29PM 44.6939 -74.6711 156° South 135 155 6,100 480 Climbing Boston Center
06:30PM 44.8165 -74.7762 158° South  Level FlightAware Approximate
06:30PM 44.6444 -74.6489 162° South 146 168 6,600  Level Boston Center
06:31PM 44.6031 -74.6269 159° South 151 174 6,900 180 Climbing Boston Center
06:32PM 44.5556 -74.6106 166° South 163 188 7,000  Climbing Boston Center
06:33PM 44.5081 -74.5856 159° South 174 200 7,000 -60 Level Boston Center
06:34PM 44.4608 -74.5517 153° Southeast 187 215 6,900 -60 Descending Boston Center
06:36PM 44.3983 -74.5436 175° South 187 215 6,900  Level Boston Center
06:37PM 44.3503 -74.5567 191° South 180 207 7,000  Climbing Boston Center
06:38PM 44.3042 -74.5608 184° South 180 207 7,000  Level Boston Center
06:39PM 44.2583 -74.5619 181° South 180 207 7,000  Level Boston Center
06:40PM 44.2106 -74.5575 176° South 180 207 7,000 -60 Level Boston Center
06:41PM 44.1647 -74.5614 183° South 175 201 6,900 -60 Descending Boston Center
06:42PM 44.1186 -74.5656 184° South 175 201 6,900  Level Boston Center
06:43PM 44.0728 -74.5756 189° South 175 201 6,900  Level Boston Center
06:44PM 44.0286 -74.5883 192° South 175 201 6,900  Level Boston Center
06:45PM 43.9867 -74.6014 193° South 164 189 6,900  Level Boston Center
06:46PM 43.9408 -74.6142 191° South 164 189 6,900  Level Boston Center
06:47PM 43.8989 -74.6269 192° South 164 189 7,000  Climbing Boston Center
06:48PM 43.8550 -74.6283 181° South 164 189 7,000  Level Boston Center
06:49PM 43.8094 -74.6150 168° South 164 189 7,000  Level Boston Center
06:50PM 43.7617 -74.5992 167° South 164 189 7,000  Level Boston Center
06:51PM 43.7139 -74.5886 171° South 169 194 7,000  Level Boston Center
06:52PM 43.6683 -74.5783 171° South 169 194 7,000  Level Boston Center
06:53PM 43.6206 -74.5711 174° South 174 200 7,000  Level Boston Center
06:54PM 43.5747 -74.5694 178° South 174 200 7,000  Level Boston Center
06:55PM 43.5317 -74.5364 151° Southeast 174 200 7,000  Level Boston Center
06:56PM 43.4883 -74.5092 155° Southeast 174 200 7,000  Level Boston Center
06:56PM 43.4614 -74.4967 161° South 177 204 7,000  Level Boston Center
06:57PM 43.4264 -74.4814 162° South 181 208 7,000  Level Boston Center
06:58PM 43.3953 -74.4631 157° South 180 207 7,000  Level Boston Center
06:59PM 43.3500 -74.4331 154° Southeast 180 207 7,000  Level Boston Center
07:00PM 43.3092 -74.3889 142° Southeast 174 200 7,000  Level Boston Center
07:01PM 43.2722 -74.3506 143° Southeast 174 200 7,000  Level Boston Center
07:02PM 43.2208 -74.3006 145° Southeast 173 199 7,000  Level Boston Center
07:03PM 43.1922 -74.2742 146° Southeast 174 200 7,000 -300 Level Boston Center
07:04PM 43.1431 -74.2214 142° Southeast 185 213 6,500 -480 Descending Boston Center
07:05PM 43.1122 -74.1836 138° Southeast 185 213 6,100 -600 Descending Boston Center
07:06PM 43.0672 -74.1397 145° Southeast 190 219 5,500 -600 Descending Boston Center
07:07PM 43.0178 -74.0872 142° Southeast 194 223 4,800 -600 Descending Boston Center
07:08PM 42.9831 -74.0522 144° Southeast 195 224 4,400 -540 Descending Boston Center
07:09PM 42.9439 -74.0114 143° Southeast 195 224 3,900 -540 Descending Boston Center
07:10PM 42.8986 -73.9622 141° Southeast 195 224 3,400 -420 Descending Boston Center
07:11PM 42.8681 -73.9244 138° Southeast 195 224 3,100 -480 Descending Boston Center
07:12PM 42.8272 -73.8442 125° Southeast 175 201 2,400 -540 Descending Boston Center
07:13PM 42.8008 -73.7900 124° Southeast 168 193 1,900 -600 Descending Boston Center
07:14PM 42.7722 -73.7497 134° Southeast 133 153 1,200 -660 Descending Boston Center
07:15PM 42.7489 -73.7717 215° Southwest 109 125 600 -600 Descending Boston Center
07:17PM 42.7333 -73.8000 270° West  Level FlightAware Approximate
07:24PM 42.7491 -73.8020 270° West  Level Estimated
07:25PM 42.7491 -73.8020 270° West  Level Estimated
07:26PM 42.7491 -73.8020 270° West  Level Estimated